sensor_id;sensor_type;location;lat;lon;timestamp;P1;durP1;ratioP1;P2;durP2;ratioP2
64419;SDS011;50745;48.170;14.516;2023-02-10T00:08:40;24.55;;;6.00;;
64419;SDS011;50745;48.170;14.516;2023-02-10T00:18:41;20.42;;;5.75;;
64419;SDS011;50745;48.170;14.516;2023-02-10T00:28:43;20.70;;;5.97;;
64419;SDS011;50745;48.170;14.516;2023-02-10T00:38:45;16.35;;;5.68;;
64419;SDS011;50745;48.170;14.516;2023-02-10T00:48:46;16.48;;;5.38;;
64419;SDS011;50745;48.170;14.516;2023-02-10T00:58:47;15.68;;;4.82;;
64419;SDS011;50745;48.170;14.516;2023-02-10T01:08:48;16.30;;;4.78;;
64419;SDS011;50745;48.170;14.516;2023-02-10T01:18:49;13.43;;;4.28;;
64419;SDS011;50745;48.170;14.516;2023-02-10T01:28:51;9.95;;;4.45;;
64419;SDS011;50745;48.170;14.516;2023-02-10T01:38:52;11.27;;;4.00;;
64419;SDS011;50745;48.170;14.516;2023-02-10T01:48:53;13.00;;;4.88;;
64419;SDS011;50745;48.170;14.516;2023-02-10T01:58:55;13.05;;;4.45;;
64419;SDS011;50745;48.170;14.516;2023-02-10T02:08:57;11.13;;;4.15;;
64419;SDS011;50745;48.170;14.516;2023-02-10T02:18:59;12.02;;;4.03;;
64419;SDS011;50745;48.170;14.516;2023-02-10T02:39:04;12.68;;;4.68;;
64419;SDS011;50745;48.170;14.516;2023-02-10T02:49:08;11.52;;;4.32;;
64419;SDS011;50745;48.170;14.516;2023-02-10T02:59:13;9.93;;;4.07;;
64419;SDS011;50745;48.170;14.516;2023-02-10T03:09:18;7.93;;;3.55;;
64419;SDS011;50745;48.170;14.516;2023-02-10T03:19:19;8.98;;;3.72;;
64419;SDS011;50745;48.170;14.516;2023-02-10T03:29:20;8.30;;;3.40;;
64419;SDS011;50745;48.170;14.516;2023-02-10T03:39:22;8.52;;;3.53;;
64419;SDS011;50745;48.170;14.516;2023-02-10T03:49:23;6.90;;;3.78;;
64419;SDS011;50745;48.170;14.516;2023-02-10T03:59:24;6.65;;;3.55;;
64419;SDS011;50745;48.170;14.516;2023-02-10T04:09:26;8.15;;;3.65;;
64419;SDS011;50745;48.170;14.516;2023-02-10T04:19:29;7.20;;;3.33;;
64419;SDS011;50745;48.170;14.516;2023-02-10T04:29:30;8.55;;;3.80;;
64419;SDS011;50745;48.170;14.516;2023-02-10T04:39:31;5.93;;;3.22;;
64419;SDS011;50745;48.170;14.516;2023-02-10T04:49:32;7.43;;;3.38;;
64419;SDS011;50745;48.170;14.516;2023-02-10T04:59:33;5.05;;;2.85;;
64419;SDS011;50745;48.170;14.516;2023-02-10T05:09:34;7.15;;;3.60;;
64419;SDS011;50745;48.170;14.516;2023-02-10T05:19:36;5.90;;;3.20;;
64419;SDS011;50745;48.170;14.516;2023-02-10T05:29:37;5.95;;;2.92;;
64419;SDS011;50745;48.170;14.516;2023-02-10T05:39:38;5.35;;;2.97;;
64419;SDS011;50745;48.170;14.516;2023-02-10T05:49:40;6.03;;;3.30;;
64419;SDS011;50745;48.170;14.516;2023-02-10T05:59:41;6.18;;;3.17;;
64419;SDS011;50745;48.170;14.516;2023-02-10T06:09:43;5.68;;;3.13;;
64419;SDS011;50745;48.170;14.516;2023-02-10T06:19:45;5.65;;;3.13;;
64419;SDS011;50745;48.170;14.516;2023-02-10T06:29:46;5.22;;;3.40;;
64419;SDS011;50745;48.170;14.516;2023-02-10T06:39:47;5.93;;;3.28;;
64419;SDS011;50745;48.170;14.516;2023-02-10T06:49:48;5.03;;;2.90;;
64419;SDS011;50745;48.170;14.516;2023-02-10T06:59:49;5.38;;;3.00;;
64419;SDS011;50745;48.170;14.516;2023-02-10T07:09:50;5.57;;;3.10;;
64419;SDS011;50745;48.170;14.516;2023-02-10T07:19:54;6.32;;;3.33;;
64419;SDS011;50745;48.170;14.516;2023-02-10T07:29:55;6.07;;;3.40;;
64419;SDS011;50745;48.170;14.516;2023-02-10T07:39:56;6.60;;;3.22;;
64419;SDS011;50745;48.170;14.516;2023-02-10T07:49:57;6.68;;;3.60;;
64419;SDS011;50745;48.170;14.516;2023-02-10T07:59:59;6.60;;;4.00;;
64419;SDS011;50745;48.170;14.516;2023-02-10T08:10:00;7.20;;;3.42;;
64419;SDS011;50745;48.170;14.516;2023-02-10T08:20:01;6.70;;;3.55;;
64419;SDS011;50745;48.170;14.516;2023-02-10T08:30:03;7.40;;;3.70;;
64419;SDS011;50745;48.170;14.516;2023-02-10T08:40:06;7.53;;;3.28;;
64419;SDS011;50745;48.170;14.516;2023-02-10T08:50:07;7.13;;;3.88;;
64419;SDS011;50745;48.170;14.516;2023-02-10T09:00:09;5.78;;;3.60;;
64419;SDS011;50745;48.170;14.516;2023-02-10T09:10:11;9.35;;;3.90;;
64419;SDS011;50745;48.170;14.516;2023-02-10T09:20:12;8.93;;;3.95;;
64419;SDS011;50745;48.170;14.516;2023-02-10T09:30:13;7.35;;;3.80;;
64419;SDS011;50745;48.170;14.516;2023-02-10T09:40:25;6.05;;;3.53;;
64419;SDS011;50745;48.170;14.516;2023-02-10T09:50:30;5.85;;;3.63;;
64419;SDS011;50745;48.170;14.516;2023-02-10T10:10:39;8.30;;;4.07;;
64419;SDS011;50745;48.170;14.516;2023-02-10T11:16:52;271.90;;;37.90;;
64419;SDS011;50745;48.170;14.516;2023-02-10T11:26:59;206.68;;;30.67;;
64419;SDS011;50745;48.170;14.516;2023-02-10T11:37:08;159.30;;;28.85;;
64419;SDS011;50745;48.170;14.516;2023-02-10T11:47:14;171.93;;;29.50;;
64419;SDS011;50745;48.170;14.516;2023-02-10T12:08:20;118.90;;;23.15;;
64419;SDS011;50745;48.170;14.516;2023-02-10T12:28:33;79.10;;;22.33;;
64419;SDS011;50745;48.170;14.516;2023-02-10T12:38:48;63.50;;;18.65;;
64419;SDS011;50745;48.170;14.516;2023-02-10T12:58:57;36.95;;;22.83;;
64419;SDS011;50745;48.170;14.516;2023-02-10T13:19:26;30.98;;;22.08;;
